sensor_id;sensor_type;location;lat;lon;timestamp;pressure;altitude;pressure_sealevel;temperature;humidity
21781;BME280;52576;53.614;9.894;2023-03-25T00:00:53;99711.34;;;8.12;81.88
21781;BME280;52576;53.614;9.894;2023-03-25T00:02:58;99711.66;;;8.08;82.04
21781;BME280;52576;53.614;9.894;2023-03-25T00:05:02;99711.91;;;8.05;81.98
21781;BME280;52576;53.614;9.894;2023-03-25T00:07:06;99713.09;;;8.01;82.15
21781;BME280;52576;53.614;9.894;2023-03-25T00:09:10;99714.97;;;7.99;82.11
21781;BME280;52576;53.614;9.894;2023-03-25T00:11:13;99716.84;;;7.97;82.19
21781;BME280;52576;53.614;9.894;2023-03-25T00:13:16;99709.97;;;7.96;82.27
21781;BME280;52576;53.614;9.894;2023-03-25T00:15:21;99711.84;;;7.94;82.40
21781;BME280;52576;53.614;9.894;2023-03-25T00:17:25;99706.84;;;7.91;82.55
21781;BME280;52576;53.614;9.894;2023-03-25T00:19:29;99711.25;;;7.90;82.60
21781;BME280;52576;53.614;9.894;2023-03-25T00:21:33;99712.28;;;7.88;82.59
21781;BME280;52576;53.614;9.894;2023-03-25T00:23:44;99710.63;;;7.87;82.77
21781;BME280;52576;53.614;9.894;2023-03-25T00:25:48;99704.69;;;7.84;82.65
21781;BME280;52576;53.614;9.894;2023-03-25T00:27:53;99699.69;;;7.81;82.58
21781;BME280;52576;53.614;9.894;2023-03-25T00:29:57;99703.25;;;7.80;82.61
21781;BME280;52576;53.614;9.894;2023-03-25T00:32:01;99693.78;;;7.79;82.66
21781;BME280;52576;53.614;9.894;2023-03-25T00:34:04;99706.09;;;7.77;82.71
21781;BME280;52576;53.614;9.894;2023-03-25T00:36:09;99698.28;;;7.77;82.54
21781;BME280;52576;53.614;9.894;2023-03-25T00:38:14;99693.78;;;7.79;82.63
21781;BME280;52576;53.614;9.894;2023-03-25T00:40:18;99695.41;;;7.80;82.68
21781;BME280;52576;53.614;9.894;2023-03-25T00:42:21;99692.81;;;7.80;82.41
21781;BME280;52576;53.614;9.894;2023-03-25T00:44:27;99690.19;;;7.80;82.48
21781;BME280;52576;53.614;9.894;2023-03-25T00:46:32;99690.19;;;7.80;82.43
21781;BME280;52576;53.614;9.894;2023-03-25T00:48:37;99690.19;;;7.80;82.56
21781;BME280;52576;53.614;9.894;2023-03-25T00:50:40;99694.59;;;7.80;82.49
21781;BME280;52576;53.614;9.894;2023-03-25T00:52:43;99684.97;;;7.80;82.34
21781;BME280;52576;53.614;9.894;2023-03-25T00:54:46;99693.53;;;7.82;82.35
21781;BME280;52576;53.614;9.894;2023-03-25T00:56:51;99693.31;;;7.86;82.27
21781;BME280;52576;53.614;9.894;2023-03-25T00:58:55;99695.81;;;7.87;82.17
21781;BME280;52576;53.614;9.894;2023-03-25T01:01:00;99689.53;;;7.90;82.35
21781;BME280;52576;53.614;9.894;2023-03-25T01:03:03;99693.59;;;7.94;82.38
21781;BME280;52576;53.614;9.894;2023-03-25T01:05:09;99692.44;;;7.98;82.16
21781;BME280;52576;53.614;9.894;2023-03-25T01:07:13;99695.53;;;8.03;82.16
21781;BME280;52576;53.614;9.894;2023-03-25T01:09:18;99695.28;;;8.06;81.96
21781;BME280;52576;53.614;9.894;2023-03-25T01:11:23;99684.63;;;8.09;82.02
21781;BME280;52576;53.614;9.894;2023-03-25T01:13:27;99684.41;;;8.12;81.84
21781;BME280;52576;53.614;9.894;2023-03-25T01:15:30;99685.00;;;8.15;81.86
21781;BME280;52576;53.614;9.894;2023-03-25T01:17:40;99689.19;;;8.18;81.72
21781;BME280;52576;53.614;9.894;2023-03-25T01:19:43;99683.72;;;8.21;81.60
21781;BME280;52576;53.614;9.894;2023-03-25T01:21:49;99691.22;;;8.26;81.51
21781;BME280;52576;53.614;9.894;2023-03-25T01:23:52;99678.91;;;8.28;81.30
21781;BME280;52576;53.614;9.894;2023-03-25T01:25:55;99679.50;;;8.31;81.32
21781;BME280;52576;53.614;9.894;2023-03-25T01:27:58;99684.50;;;8.34;81.05
21781;BME280;52576;53.614;9.894;2023-03-25T01:30:02;99682.59;;;8.36;81.06
21781;BME280;52576;53.614;9.894;2023-03-25T01:32:06;99682.38;;;8.39;80.94
21781;BME280;52576;53.614;9.894;2023-03-25T01:34:10;99675.16;;;8.43;81.01
21781;BME280;52576;53.614;9.894;2023-03-25T01:36:13;99675.03;;;8.44;80.74
21781;BME280;52576;53.614;9.894;2023-03-25T01:38:18;99674.81;;;8.47;80.76
21781;BME280;52576;53.614;9.894;2023-03-25T01:40:22;99666.88;;;8.49;80.53
21781;BME280;52576;53.614;9.894;2023-03-25T01:42:25;99667.47;;;8.53;80.38
21781;BME280;52576;53.614;9.894;2023-03-25T01:47:10;99662.84;;;8.56;80.25
21781;BME280;52576;53.614;9.894;2023-03-25T01:49:17;99667.81;;;8.59;79.90
21781;BME280;52576;53.614;9.894;2023-03-25T01:51:24;99654.63;;;8.61;79.87
21781;BME280;52576;53.614;9.894;2023-03-25T01:53:30;99659.63;;;8.64;79.61
21781;BME280;52576;53.614;9.894;2023-03-25T01:55:36;99660.34;;;8.66;79.44
21781;BME280;52576;53.614;9.894;2023-03-25T01:57:42;99653.22;;;8.68;79.36
21781;BME280;52576;53.614;9.894;2023-03-25T01:59:47;99654.91;;;8.69;79.31
21781;BME280;52576;53.614;9.894;2023-03-25T02:01:53;99655.63;;;8.71;79.12
21781;BME280;52576;53.614;9.894;2023-03-25T02:03:59;99656.31;;;8.73;79.08
21781;BME280;52576;53.614;9.894;2023-03-25T02:06:07;99639.72;;;8.74;78.86
21781;BME280;52576;53.614;9.894;2023-03-25T02:08:12;99641.38;;;8.75;78.66
21781;BME280;52576;53.614;9.894;2023-03-25T02:10:18;99648.38;;;8.74;78.61
21781;BME280;52576;53.614;9.894;2023-03-25T02:12:21;99646.59;;;8.75;78.51
21781;BME280;52576;53.614;9.894;2023-03-25T02:14:27;99644.94;;;8.74;78.43
21781;BME280;52576;53.614;9.894;2023-03-25T02:16:42;99642.31;;;8.74;78.43
21781;BME280;52576;53.614;9.894;2023-03-25T02:18:59;99643.25;;;8.73;78.33
21781;BME280;52576;53.614;9.894;2023-03-25T02:21:41;99639.72;;;8.74;78.35
21781;BME280;52576;53.614;9.894;2023-03-25T02:27:12;99628.53;;;8.72;78.04
21781;BME280;52576;53.614;9.894;2023-03-25T02:29:22;99623.53;;;8.69;77.99
21781;BME280;52576;53.614;9.894;2023-03-25T02:31:49;99629.84;;;8.66;78.00
21781;BME280;52576;53.614;9.894;2023-03-25T02:39:18;99621.91;;;8.57;77.90
21781;BME280;52576;53.614;9.894;2023-03-25T02:41:29;99622.13;;;8.54;78.03
21781;BME280;52576;53.614;9.894;2023-03-25T02:43:38;99620.47;;;8.53;78.11
21781;BME280;52576;53.614;9.894;2023-03-25T02:45:46;99615.47;;;8.49;78.04
21781;BME280;52576;53.614;9.894;2023-03-25T02:47:55;99605.25;;;8.46;78.01
21781;BME280;52576;53.614;9.894;2023-03-25T02:50:05;99604.44;;;8.46;78.05
21781;BME280;52576;53.614;9.894;2023-03-25T02:52:13;99614.03;;;8.45;78.04
21781;BME280;52576;53.614;9.894;2023-03-25T02:54:21;99614.03;;;8.45;78.14
21781;BME280;52576;53.614;9.894;2023-03-25T02:56:27;99608.09;;;8.43;78.26
21781;BME280;52576;53.614;9.894;2023-03-25T02:58:34;99610.72;;;8.43;78.15
21781;BME280;52576;53.614;9.894;2023-03-25T03:00:39;99604.78;;;8.41;78.24
21781;BME280;52576;53.614;9.894;2023-03-25T03:02:45;99599.53;;;8.41;78.18
21781;BME280;52576;53.614;9.894;2023-03-25T03:04:53;99604.78;;;8.41;78.19
21781;BME280;52576;53.614;9.894;2023-03-25T03:06:57;99602.16;;;8.41;78.05
21781;BME280;52576;53.614;9.894;2023-03-25T03:09:12;99606.66;;;8.39;77.85
21781;BME280;52576;53.614;9.894;2023-03-25T03:11:24;99598.00;;;8.39;78.14
21781;BME280;52576;53.614;9.894;2023-03-25T03:13:41;99604.06;;;8.39;78.13
21781;BME280;52576;53.614;9.894;2023-03-25T03:15:54;99595.28;;;8.40;78.07
21781;BME280;52576;53.614;9.894;2023-03-25T03:18:09;99603.09;;;8.40;77.98
21781;BME280;52576;53.614;9.894;2023-03-25T03:20:18;99600.50;;;8.40;78.34
21781;BME280;52576;53.614;9.894;2023-03-25T03:22:35;99599.66;;;8.40;78.05
21781;BME280;52576;53.614;9.894;2023-03-25T03:24:42;99604.06;;;8.39;78.05
21781;BME280;52576;53.614;9.894;2023-03-25T03:26:52;99599.06;;;8.36;78.04
21781;BME280;52576;53.614;9.894;2023-03-25T03:29:06;99601.66;;;8.36;77.79
21781;BME280;52576;53.614;9.894;2023-03-25T03:31:16;99600.00;;;8.35;78.06
21781;BME280;52576;53.614;9.894;2023-03-25T03:33:46;99611.41;;;8.34;77.89
21781;BME280;52576;53.614;9.894;2023-03-25T03:35:53;99600.97;;;8.34;77.88
21781;BME280;52576;53.614;9.894;2023-03-25T03:38:02;99601.78;;;8.35;78.00
21781;BME280;52576;53.614;9.894;2023-03-25T03:40:10;99594.78;;;8.35;77.84
21781;BME280;52576;53.614;9.894;2023-03-25T03:42:22;99604.28;;;8.36;77.78
21781;BME280;52576;53.614;9.894;2023-03-25T03:44:31;99597.41;;;8.35;77.82
21781;BME280;52576;53.614;9.894;2023-03-25T03:46:42;99600.00;;;8.35;77.81
21781;BME280;52576;53.614;9.894;2023-03-25T03:48:51;99590.50;;;8.34;77.72
21781;BME280;52576;53.614;9.894;2023-03-25T03:51:01;99597.41;;;8.35;77.64
21781;BME280;52576;53.614;9.894;2023-03-25T03:53:13;99597.63;;;8.32;77.57
21781;BME280;52576;53.614;9.894;2023-03-25T03:55:20;99595.00;;;8.32;77.56
21781;BME280;52576;53.614;9.894;2023-03-25T03:57:30;99593.34;;;8.31;77.47
21781;BME280;52576;53.614;9.894;2023-03-25T03:59:40;99592.63;;;8.29;77.44
21781;BME280;52576;53.614;9.894;2023-03-25T04:01:46;99590.97;;;8.28;77.52
21781;BME280;52576;53.614;9.894;2023-03-25T04:03:57;99585.75;;;8.28;77.39
21781;BME280;52576;53.614;9.894;2023-03-25T04:06:06;99589.31;;;8.27;77.56
21781;BME280;52576;53.614;9.894;2023-03-25T04:08:20;99595.47;;;8.26;77.55
21781;BME280;52576;53.614;9.894;2023-03-25T04:10:29;99598.91;;;8.27;77.89
21781;BME280;52576;53.614;9.894;2023-03-25T04:12:45;99591.91;;;8.27;77.70
21781;BME280;52576;53.614;9.894;2023-03-25T04:14:48;99584.91;;;8.28;77.65
21781;BME280;52576;53.614;9.894;2023-03-25T04:16:53;99586.59;;;8.29;77.65
21781;BME280;52576;53.614;9.894;2023-03-25T04:18:56;99584.09;;;8.27;77.84
21781;BME280;52576;53.614;9.894;2023-03-25T04:21:00;99599.75;;;8.27;77.88
21781;BME280;52576;53.614;9.894;2023-03-25T04:23:04;99589.31;;;8.27;77.91
21781;BME280;52576;53.614;9.894;2023-03-25T04:25:11;99590.16;;;8.28;77.97
21781;BME280;52576;53.614;9.894;2023-03-25T04:27:14;99592.63;;;8.29;78.03
21781;BME280;52576;53.614;9.894;2023-03-25T04:29:19;99593.47;;;8.30;77.86
21781;BME280;52576;53.614;9.894;2023-03-25T04:31:22;99594.06;;;8.33;77.86
21781;BME280;52576;53.614;9.894;2023-03-25T04:33:27;99601.78;;;8.35;77.74
21781;BME280;52576;53.614;9.894;2023-03-25T04:35:33;99615.56;;;8.37;77.88
21781;BME280;52576;53.614;9.894;2023-03-25T04:37:36;99631.00;;;8.40;77.76
21781;BME280;52576;53.614;9.894;2023-03-25T04:39:39;99640.59;;;8.39;78.22
21781;BME280;52576;53.614;9.894;2023-03-25T04:41:42;99637.50;;;8.34;78.41
21781;BME280;52576;53.614;9.894;2023-03-25T04:43:46;99633.69;;;8.27;78.92
21781;BME280;52576;53.614;9.894;2023-03-25T04:45:50;99629.97;;;8.18;79.24
21781;BME280;52576;53.614;9.894;2023-03-25T04:47:56;99630.53;;;8.11;79.57
21781;BME280;52576;53.614;9.894;2023-03-25T04:49:59;99618.09;;;8.03;79.94
21781;BME280;52576;53.614;9.894;2023-03-25T04:52:04;99612.50;;;7.97;80.48
21781;BME280;52576;53.614;9.894;2023-03-25T04:54:07;99611.28;;;7.90;80.68
21781;BME280;52576;53.614;9.894;2023-03-25T04:56:13;99609.09;;;7.83;81.18
21781;BME280;52576;53.614;9.894;2023-03-25T04:58:18;99617.41;;;7.77;81.53
21781;BME280;52576;53.614;9.894;2023-03-25T05:00:25;99616.81;;;7.74;81.79
21781;BME280;52576;53.614;9.894;2023-03-25T05:02:29;99616.19;;;7.70;82.16
21781;BME280;52576;53.614;9.894;2023-03-25T05:04:33;99617.34;;;7.66;82.55
21781;BME280;52576;53.614;9.894;2023-03-25T05:06:37;99607.13;;;7.63;82.85
21781;BME280;52576;53.614;9.894;2023-03-25T05:08:41;99615.19;;;7.60;83.11
21781;BME280;52576;53.614;9.894;2023-03-25T05:10:44;99623.13;;;7.59;83.19
21781;BME280;52576;53.614;9.894;2023-03-25T05:12:47;99618.94;;;7.56;83.43
21781;BME280;52576;53.614;9.894;2023-03-25T05:14:52;99620.00;;;7.54;83.74
21781;BME280;52576;53.614;9.894;2023-03-25T05:16:55;99626.31;;;7.51;83.95
21781;BME280;52576;53.614;9.894;2023-03-25T05:19:01;99629.84;;;7.50;84.04
21781;BME280;52576;53.614;9.894;2023-03-25T05:21:07;99626.53;;;7.48;84.36
21781;BME280;52576;53.614;9.894;2023-03-25T05:23:13;99619.63;;;7.47;84.43
21781;BME280;52576;53.614;9.894;2023-03-25T05:25:18;99622.25;;;7.47;84.66
21781;BME280;52576;53.614;9.894;2023-03-25T05:27:23;99615.38;;;7.46;84.74
21781;BME280;52576;53.614;9.894;2023-03-25T05:29:27;99605.88;;;7.45;84.78
21781;BME280;52576;53.614;9.894;2023-03-25T05:31:35;99608.59;;;7.43;84.96
21781;BME280;52576;53.614;9.894;2023-03-25T05:33:38;99614.66;;;7.44;85.00
21781;BME280;52576;53.614;9.894;2023-03-25T05:35:45;99609.44;;;7.44;85.20
21781;BME280;52576;53.614;9.894;2023-03-25T05:37:48;99609.44;;;7.44;85.43
21781;BME280;52576;53.614;9.894;2023-03-25T05:39:52;99613.81;;;7.43;85.42
21781;BME280;52576;53.614;9.894;2023-03-25T05:41:55;99619.84;;;7.44;85.42
21781;BME280;52576;53.614;9.894;2023-03-25T05:44:04;99625.91;;;7.44;85.68
21781;BME280;52576;53.614;9.894;2023-03-25T05:46:07;99622.47;;;7.44;85.68
21781;BME280;52576;53.614;9.894;2023-03-25T05:48:10;99618.91;;;7.45;85.71
21781;BME280;52576;53.614;9.894;2023-03-25T05:50:14;99619.84;;;7.44;85.67
21781;BME280;52576;53.614;9.894;2023-03-25T05:52:19;99624.13;;;7.45;85.87
21781;BME280;52576;53.614;9.894;2023-03-25T05:54:25;99626.75;;;7.45;85.76
21781;BME280;52576;53.614;9.894;2023-03-25T05:56:29;99623.19;;;7.46;85.95
21781;BME280;52576;53.614;9.894;2023-03-25T05:58:32;99628.41;;;7.46;85.84
21781;BME280;52576;53.614;9.894;2023-03-25T06:00:38;99632.69;;;7.47;85.88
21781;BME280;52576;53.614;9.894;2023-03-25T06:02:41;99642.16;;;7.48;85.80
21781;BME280;52576;53.614;9.894;2023-03-25T06:04:47;99634.22;;;7.49;85.74
21781;BME280;52576;53.614;9.894;2023-03-25T06:06:52;99638.41;;;7.52;85.67
21781;BME280;52576;53.614;9.894;2023-03-25T06:08:56;99632.94;;;7.55;85.45
21781;BME280;52576;53.614;9.894;2023-03-25T06:11:00;99634.59;;;7.56;85.26
21781;BME280;52576;53.614;9.894;2023-03-25T06:13:04;99636.16;;;7.59;85.01
21781;BME280;52576;53.614;9.894;2023-03-25T06:15:09;99630.81;;;7.60;84.96
21781;BME280;52576;53.614;9.894;2023-03-25T06:17:13;99635.09;;;7.61;84.95
21781;BME280;52576;53.614;9.894;2023-03-25T06:19:17;99635.81;;;7.63;84.86
21781;BME280;52576;53.614;9.894;2023-03-25T06:21:20;99639.16;;;7.65;84.77
21781;BME280;52576;53.614;9.894;2023-03-25T06:23:24;99641.66;;;7.67;84.74
21781;BME280;52576;53.614;9.894;2023-03-25T06:25:30;99644.16;;;7.68;84.71
21781;BME280;52576;53.614;9.894;2023-03-25T06:27:33;99647.47;;;7.70;84.74
21781;BME280;52576;53.614;9.894;2023-03-25T06:29:41;99646.44;;;7.73;84.60
21781;BME280;52576;53.614;9.894;2023-03-25T06:31:44;99651.31;;;7.77;84.44
21781;BME280;52576;53.614;9.894;2023-03-25T06:33:48;99646.81;;;7.79;84.45
21781;BME280;52576;53.614;9.894;2023-03-25T06:35:52;99648.25;;;7.83;84.34
21781;BME280;52576;53.614;9.894;2023-03-25T06:37:55;99651.56;;;7.86;84.21
21781;BME280;52576;53.614;9.894;2023-03-25T06:40:09;99648.75;;;7.89;84.21
21781;BME280;52576;53.614;9.894;2023-03-25T06:42:14;99637.34;;;7.90;84.24
21781;BME280;52576;53.614;9.894;2023-03-25T06:44:49;99642.34;;;7.93;84.16
21781;BME280;52576;53.614;9.894;2023-03-25T06:47:09;99648.19;;;7.96;83.92
21781;BME280;52576;53.614;9.894;2023-03-25T06:49:18;99640.03;;;8.01;83.96
21781;BME280;52576;53.614;9.894;2023-03-25T06:51:21;99635.28;;;8.06;84.04
21781;BME280;52576;53.614;9.894;2023-03-25T06:53:24;99644.53;;;8.10;83.92
21781;BME280;52576;53.614;9.894;2023-03-25T06:55:28;99647.75;;;8.13;83.91
21781;BME280;52576;53.614;9.894;2023-03-25T06:57:32;99644.81;;;8.18;83.78
21781;BME280;52576;53.614;9.894;2023-03-25T06:59:36;99652.41;;;8.21;83.80
21781;BME280;52576;53.614;9.894;2023-03-25T07:01:40;99642.69;;;8.23;83.42
21781;BME280;52576;53.614;9.894;2023-03-25T07:03:44;99641.03;;;8.22;83.09
21781;BME280;52576;53.614;9.894;2023-03-25T07:05:47;99646.34;;;8.21;82.84
21781;BME280;52576;53.614;9.894;2023-03-25T07:07:51;99644.69;;;8.20;82.62
21781;BME280;52576;53.614;9.894;2023-03-25T07:09:54;99650.97;;;8.17;82.53
21781;BME280;52576;53.614;9.894;2023-03-25T07:11:58;99645.75;;;8.17;82.58
21781;BME280;52576;53.614;9.894;2023-03-25T07:14:03;99644.59;;;8.21;82.59
21781;BME280;52576;53.614;9.894;2023-03-25T07:16:07;99650.28;;;8.26;82.59
21781;BME280;52576;53.614;9.894;2023-03-25T07:18:15;99648.91;;;8.33;82.48
21781;BME280;52576;53.614;9.894;2023-03-25T07:20:19;99652.94;;;8.37;82.30
21781;BME280;52576;53.614;9.894;2023-03-25T07:22:22;99657.94;;;8.40;82.19
21781;BME280;52576;53.614;9.894;2023-03-25T07:24:25;99657.81;;;8.42;81.96
21781;BME280;52576;53.614;9.894;2023-03-25T07:26:28;99659.59;;;8.41;81.80
21781;BME280;52576;53.614;9.894;2023-03-25T07:28:31;99664.81;;;8.41;81.85
21781;BME280;52576;53.614;9.894;2023-03-25T07:30:36;99647.50;;;8.40;81.64
21781;BME280;52576;53.614;9.894;2023-03-25T07:32:39;99656.03;;;8.42;81.56
21781;BME280;52576;53.614;9.894;2023-03-25T07:34:43;99668.16;;;8.43;81.52
21781;BME280;52576;53.614;9.894;2023-03-25T07:36:46;99655.81;;;8.45;81.32
21781;BME280;52576;53.614;9.894;2023-03-25T07:38:49;99661.75;;;8.47;81.35
21781;BME280;52576;53.614;9.894;2023-03-25T07:40:54;99657.25;;;8.49;81.17
21781;BME280;52576;53.614;9.894;2023-03-25T07:42:57;99664.13;;;8.50;80.99
21781;BME280;52576;53.614;9.894;2023-03-25T07:45:23;99660.59;;;8.52;80.92
21781;BME280;52576;53.614;9.894;2023-03-25T07:47:29;99659.28;;;8.57;81.04
21781;BME280;52576;53.614;9.894;2023-03-25T07:49:33;99660.59;;;8.63;80.84
21781;BME280;52576;53.614;9.894;2023-03-25T07:51:36;99666.28;;;8.68;80.87
21781;BME280;52576;53.614;9.894;2023-03-25T07:53:39;99659.16;;;8.70;80.76
21781;BME280;52576;53.614;9.894;2023-03-25T07:55:45;99647.78;;;8.71;80.86
21781;BME280;52576;53.614;9.894;2023-03-25T07:57:49;99648.50;;;8.73;80.73
21781;BME280;52576;53.614;9.894;2023-03-25T07:59:52;99653.72;;;8.73;80.69
21781;BME280;52576;53.614;9.894;2023-03-25T08:01:56;99650.16;;;8.74;80.52
21781;BME280;52576;53.614;9.894;2023-03-25T08:04:00;99655.16;;;8.77;80.57
21781;BME280;52576;53.614;9.894;2023-03-25T08:06:04;99663.31;;;8.83;80.56
21781;BME280;52576;53.614;9.894;2023-03-25T08:08:07;99666.31;;;8.90;80.27
21781;BME280;52576;53.614;9.894;2023-03-25T08:10:11;99654.78;;;8.93;80.09
21781;BME280;52576;53.614;9.894;2023-03-25T08:12:15;99659.19;;;8.92;80.08
21781;BME280;52576;53.614;9.894;2023-03-25T08:14:19;99672.34;;;8.91;79.91
21781;BME280;52576;53.614;9.894;2023-03-25T08:16:24;99663.69;;;8.90;80.04
21781;BME280;52576;53.614;9.894;2023-03-25T08:18:28;99674.38;;;8.87;79.88
21781;BME280;52576;53.614;9.894;2023-03-25T08:20:33;99664.88;;;8.86;79.93
21781;BME280;52576;53.614;9.894;2023-03-25T08:22:37;99663.69;;;8.90;80.03
21781;BME280;52576;53.614;9.894;2023-03-25T08:24:40;99663.94;;;8.98;80.21
21781;BME280;52576;53.614;9.894;2023-03-25T08:26:43;99672.72;;;9.08;80.05
21781;BME280;52576;53.614;9.894;2023-03-25T08:28:46;99662.72;;;9.13;79.99
21781;BME280;52576;53.614;9.894;2023-03-25T08:30:51;99659.63;;;9.19;79.78
21781;BME280;52576;53.614;9.894;2023-03-25T08:32:56;99668.06;;;9.23;79.54
21781;BME280;52576;53.614;9.894;2023-03-25T08:34:59;99658.44;;;9.24;79.41
21781;BME280;52576;53.614;9.894;2023-03-25T08:37:06;99663.91;;;9.21;79.24
21781;BME280;52576;53.614;9.894;2023-03-25T08:39:11;99658.69;;;9.21;78.91
21781;BME280;52576;53.614;9.894;2023-03-25T08:41:18;99665.56;;;9.22;78.61
21781;BME280;52576;53.614;9.894;2023-03-25T08:43:21;99658.44;;;9.24;78.38
21781;BME280;52576;53.614;9.894;2023-03-25T08:45:24;99663.31;;;9.28;78.09
21781;BME280;52576;53.614;9.894;2023-03-25T08:47:28;99672.00;;;9.29;77.72
21781;BME280;52576;53.614;9.894;2023-03-25T08:49:31;99664.03;;;9.30;77.54
21781;BME280;52576;53.614;9.894;2023-03-25T08:51:34;99665.81;;;9.30;77.68
21781;BME280;52576;53.614;9.894;2023-03-25T08:53:39;99672.81;;;9.29;77.49
21781;BME280;52576;53.614;9.894;2023-03-25T08:55:42;99679.13;;;9.27;77.56
21781;BME280;52576;53.614;9.894;2023-03-25T08:57:46;99679.47;;;9.22;77.68
21781;BME280;52576;53.614;9.894;2023-03-25T08:59:49;99683.63;;;9.13;77.92
21781;BME280;52576;53.614;9.894;2023-03-25T09:01:53;99686.03;;;9.05;78.13
21781;BME280;52576;53.614;9.894;2023-03-25T09:03:58;99686.13;;;8.93;78.11
21781;BME280;52576;53.614;9.894;2023-03-25T09:06:03;99697.56;;;8.80;78.36
21781;BME280;52576;53.614;9.894;2023-03-25T09:08:06;99690.75;;;8.67;78.63
21781;BME280;52576;53.614;9.894;2023-03-25T09:10:11;99691.94;;;8.52;78.70
21781;BME280;52576;53.614;9.894;2023-03-25T09:12:15;99690.44;;;8.36;79.25
21781;BME280;52576;53.614;9.894;2023-03-25T09:14:18;99690.63;;;8.22;79.65
21781;BME280;52576;53.614;9.894;2023-03-25T09:16:23;99691.50;;;8.10;79.94
21781;BME280;52576;53.614;9.894;2023-03-25T09:18:26;99694.09;;;7.99;79.94
21781;BME280;52576;53.614;9.894;2023-03-25T09:20:33;99686.94;;;7.90;80.20
21781;BME280;52576;53.614;9.894;2023-03-25T09:22:36;99686.44;;;7.84;80.50
21781;BME280;52576;53.614;9.894;2023-03-25T09:24:40;99690.91;;;7.82;80.79
21781;BME280;52576;53.614;9.894;2023-03-25T09:26:44;99688.56;;;7.79;80.80
21781;BME280;52576;53.614;9.894;2023-03-25T09:28:48;99686.06;;;7.78;81.28
21781;BME280;52576;53.614;9.894;2023-03-25T09:30:52;99677.41;;;7.77;81.07
21781;BME280;52576;53.614;9.894;2023-03-25T09:32:56;99676.69;;;7.75;81.25
21781;BME280;52576;53.614;9.894;2023-03-25T09:34:59;99681.28;;;7.72;81.21
21781;BME280;52576;53.614;9.894;2023-03-25T09:37:03;99679.63;;;7.71;81.26
21781;BME280;52576;53.614;9.894;2023-03-25T09:39:06;99676.28;;;7.69;81.17
21781;BME280;52576;53.614;9.894;2023-03-25T09:41:25;99679.72;;;7.69;81.40
21781;BME280;52576;53.614;9.894;2023-03-25T09:43:42;99672.72;;;7.70;81.31
21781;BME280;52576;53.614;9.894;2023-03-25T09:45:50;99682.34;;;7.69;81.24
21781;BME280;52576;53.614;9.894;2023-03-25T09:47:56;99682.13;;;7.72;81.34
21781;BME280;52576;53.614;9.894;2023-03-25T09:50:05;99680.13;;;7.76;81.15
21781;BME280;52576;53.614;9.894;2023-03-25T09:52:15;99679.75;;;7.80;81.11
21781;BME280;52576;53.614;9.894;2023-03-25T09:54:24;99672.44;;;7.86;81.31
21781;BME280;52576;53.614;9.894;2023-03-25T09:56:34;99678.88;;;7.93;81.03
21781;BME280;52576;53.614;9.894;2023-03-25T09:58:46;99681.78;;;8.01;81.24
21781;BME280;52576;53.614;9.894;2023-03-25T10:00:54;99679.41;;;8.09;81.01
21781;BME280;52576;53.614;9.894;2023-03-25T10:03:08;99685.84;;;8.16;80.80
21781;BME280;52576;53.614;9.894;2023-03-25T10:05:32;99674.72;;;8.25;80.46
21781;BME280;52576;53.614;9.894;2023-03-25T10:07:48;99682.59;;;8.36;80.31
21781;BME280;52576;53.614;9.894;2023-03-25T10:10:00;99680.03;;;8.47;80.00
21781;BME280;52576;53.614;9.894;2023-03-25T10:12:10;99678.38;;;8.58;79.83
21781;BME280;52576;53.614;9.894;2023-03-25T10:14:19;99686.97;;;8.71;79.46
21781;BME280;52576;53.614;9.894;2023-03-25T10:16:34;99677.22;;;8.84;79.43
21781;BME280;52576;53.614;9.894;2023-03-25T10:18:54;99677.47;;;9.03;79.13
21781;BME280;52576;53.614;9.894;2023-03-25T10:21:08;99684.59;;;9.24;78.99
21781;BME280;52576;53.614;9.894;2023-03-25T10:23:21;99696.81;;;9.45;78.47
21781;BME280;52576;53.614;9.894;2023-03-25T10:25:30;99694.25;;;9.66;78.10
21781;BME280;52576;53.614;9.894;2023-03-25T10:27:37;99697.31;;;9.82;77.51
21781;BME280;52576;53.614;9.894;2023-03-25T10:29:47;99706.78;;;9.95;76.53
21781;BME280;52576;53.614;9.894;2023-03-25T10:31:53;99700.09;;;10.02;76.03
21781;BME280;52576;53.614;9.894;2023-03-25T10:34:02;99699.16;;;10.03;75.42
21781;BME280;52576;53.614;9.894;2023-03-25T10:36:12;99695.00;;;10.00;74.87
21781;BME280;52576;53.614;9.894;2023-03-25T10:38:19;99690.00;;;9.97;74.90
21781;BME280;52576;53.614;9.894;2023-03-25T10:40:27;99686.56;;;9.97;74.49
21781;BME280;52576;53.614;9.894;2023-03-25T10:42:36;99690.84;;;9.98;74.67
21781;BME280;52576;53.614;9.894;2023-03-25T10:44:40;99686.06;;;10.03;74.48
21781;BME280;52576;53.614;9.894;2023-03-25T10:46:48;99684.84;;;10.07;74.53
21781;BME280;52576;53.614;9.894;2023-03-25T10:48:53;99682.94;;;10.09;74.14
21781;BME280;52576;53.614;9.894;2023-03-25T10:51:02;99682.94;;;10.09;73.38
21781;BME280;52576;53.614;9.894;2023-03-25T10:53:11;99677.13;;;10.05;72.50
21781;BME280;52576;53.614;9.894;2023-03-25T10:55:23;99676.78;;;9.99;72.34
21781;BME280;52576;53.614;9.894;2023-03-25T10:57:28;99679.91;;;9.93;72.12
21781;BME280;52576;53.614;9.894;2023-03-25T10:59:35;99679.72;;;9.84;71.89
21781;BME280;52576;53.614;9.894;2023-03-25T11:01:41;99673.31;;;9.77;71.91
21781;BME280;52576;53.614;9.894;2023-03-25T11:03:49;99687.81;;;9.70;71.76
21781;BME280;52576;53.614;9.894;2023-03-25T11:05:53;99684.97;;;9.62;71.92
21781;BME280;52576;53.614;9.894;2023-03-25T11:07:59;99694.53;;;9.52;72.16
21781;BME280;52576;53.614;9.894;2023-03-25T11:10:24;99690.78;;;9.34;72.41
21781;BME280;52576;53.614;9.894;2023-03-25T11:12:31;99717.84;;;9.10;73.01
21781;BME280;52576;53.614;9.894;2023-03-25T11:14:53;99720.94;;;8.82;73.68
21781;BME280;52576;53.614;9.894;2023-03-25T11:17:00;99721.97;;;8.57;74.67
21781;BME280;52576;53.614;9.894;2023-03-25T11:19:17;99730.56;;;8.35;75.27
21781;BME280;52576;53.614;9.894;2023-03-25T11:21:22;99734.50;;;8.17;76.35
21781;BME280;52576;53.614;9.894;2023-03-25T11:23:29;99740.63;;;8.05;76.62
21781;BME280;52576;53.614;9.894;2023-03-25T11:25:36;99734.63;;;7.92;77.11
21781;BME280;52576;53.614;9.894;2023-03-25T11:27:45;99734.44;;;7.82;77.82
21781;BME280;52576;53.614;9.894;2023-03-25T11:29:51;99735.94;;;7.73;78.29